Blanket, Texas
Current Conditions -  °F | °C
As of 9:15 PM on Saturday 22 Nov 2014 (Local Time) from KBWD Reporting Station
Broken Clouds Broken Clouds  
Wind Chill: 13°   Ceiling: 11000
Heat Index: 13°   Visibility: 10mi
Dew Point: 12°   Wind: 7mph
Humidity: 94%   Direction: 150°SSE
Pressure: 29.76"   Gusts: NA
Location:  31.82°N, 98.79°W
Report Text: KBWD 230315Z AUTO 15006KT 10SM BKN110 13/12 A2976 RMK AO2
Loading
Personal Weather Stations






























Interactive Weather Map New forecast layout! Learn more

10-Day Weather Forecast

Advertisements
Track Severe Weather on mobile